createdAt,value
2022-10-20T00:01:14.470Z,101423.00
2022-10-20T00:03:41.878Z,101423.00
2022-10-20T00:06:15.095Z,101417.00
2022-10-20T00:08:45.355Z,101417.00
2022-10-20T00:11:15.750Z,101415.00
2022-10-20T00:13:45.077Z,101408.00
2022-10-20T00:16:12.892Z,101410.00
2022-10-20T00:18:40.836Z,101409.00
2022-10-20T00:21:21.183Z,101405.00
2022-10-20T00:23:48.987Z,101397.00
2022-10-20T00:26:22.252Z,101382.00
2022-10-20T00:28:50.157Z,101416.00
2022-10-20T00:31:19.496Z,101402.00
2022-10-20T00:33:47.262Z,101390.00
2022-10-20T00:36:18.455Z,101401.00
2022-10-20T00:38:45.728Z,101385.00
2022-10-20T00:41:21.579Z,101393.00
2022-10-20T00:43:54.373Z,101385.00
2022-10-20T00:46:43.006Z,101394.00
2022-10-20T00:49:25.504Z,101390.00
2022-10-20T00:51:54.838Z,101359.00
2022-10-20T00:54:27.082Z,101389.00
2022-10-20T00:56:57.003Z,101389.00
2022-10-20T00:59:31.710Z,101381.00
2022-10-20T01:02:01.939Z,101386.00
2022-10-20T01:04:31.742Z,101350.00
2022-10-20T01:06:59.353Z,101396.00
2022-10-20T01:09:27.334Z,101379.00
2022-10-20T01:12:33.919Z,101382.00
2022-10-20T01:15:07.799Z,101377.00
2022-10-20T01:17:52.254Z,101381.00
2022-10-20T01:20:28.174Z,101387.00
2022-10-20T01:23:31.598Z,101366.00
2022-10-20T01:26:32.342Z,101366.00
2022-10-20T01:29:09.876Z,101359.00
2022-10-20T01:32:29.130Z,101359.00
2022-10-20T01:35:07.561Z,101358.00
2022-10-20T01:37:49.233Z,101366.00
2022-10-20T01:40:27.828Z,101371.00
2022-10-20T01:42:59.771Z,101359.00
2022-10-20T01:45:32.364Z,101359.00
2022-10-20T01:48:05.420Z,101361.00
2022-10-20T01:50:34.621Z,101362.00
2022-10-20T01:53:02.741Z,101365.00
2022-10-20T01:55:30.718Z,101355.00
2022-10-20T01:58:39.346Z,101357.00
2022-10-20T02:01:49.512Z,101357.00
2022-10-20T02:04:28.010Z,101360.00
2022-10-20T02:07:11.802Z,101348.00
2022-10-20T02:09:50.381Z,101348.00
2022-10-20T02:12:27.490Z,101360.00
2022-10-20T02:14:57.316Z,101334.00
2022-10-20T02:17:24.416Z,101361.00
2022-10-20T02:19:53.891Z,101361.00
2022-10-20T02:22:23.130Z,101355.00
2022-10-20T02:24:50.513Z,101357.00
2022-10-20T02:27:27.386Z,101348.00
2022-10-20T02:30:04.600Z,101360.00
2022-10-20T02:32:35.496Z,101355.00
2022-10-20T02:35:14.498Z,101359.00
2022-10-20T02:37:41.908Z,101351.00
2022-10-20T02:40:09.998Z,101355.00
2022-10-20T02:42:37.530Z,101352.00
2022-10-20T02:45:04.975Z,101351.00
2022-10-20T02:47:31.872Z,101355.00
2022-10-20T02:49:58.913Z,101363.00
2022-10-20T02:52:25.803Z,101362.00
2022-10-20T02:54:52.776Z,101364.00
2022-10-20T02:57:19.722Z,101355.00
2022-10-20T02:59:46.710Z,101363.00
2022-10-20T03:02:13.706Z,101360.00
2022-10-20T03:04:40.645Z,101368.00
2022-10-20T03:07:07.561Z,101376.00
2022-10-20T03:09:34.486Z,101379.00
2022-10-20T03:12:02.056Z,101367.00
2022-10-20T03:14:29.211Z,101365.00
2022-10-20T03:16:56.094Z,101374.00
2022-10-20T03:19:23.001Z,101374.00
2022-10-20T03:21:49.917Z,101381.00
2022-10-20T03:24:16.974Z,101379.00
2022-10-20T03:26:43.846Z,101375.00
2022-10-20T03:29:10.794Z,101383.00
2022-10-20T03:31:37.720Z,101372.00
2022-10-20T03:34:04.634Z,101376.00
2022-10-20T03:36:31.525Z,101387.00
2022-10-20T03:38:58.414Z,101386.00
2022-10-20T03:41:25.344Z,101378.00
2022-10-20T03:43:52.341Z,101358.00
2022-10-20T03:46:19.274Z,101393.00
2022-10-20T03:48:46.192Z,101383.00
2022-10-20T03:51:14.461Z,101381.00
2022-10-20T03:53:41.465Z,101383.00
2022-10-20T03:56:12.829Z,101388.00
2022-10-20T03:58:39.840Z,101388.00
2022-10-20T04:01:09.322Z,101382.00
2022-10-20T04:03:36.322Z,101387.00
2022-10-20T04:06:03.271Z,101379.00
2022-10-20T04:08:30.186Z,101386.00
2022-10-20T04:10:58.731Z,101375.00
2022-10-20T04:13:25.962Z,101382.00
2022-10-20T04:15:52.895Z,101376.00
2022-10-20T04:18:19.820Z,101378.00
2022-10-20T04:20:48.906Z,101392.00
2022-10-20T04:23:16.044Z,101375.00
2022-10-20T04:25:47.605Z,101388.00
2022-10-20T04:28:20.280Z,101356.00
2022-10-20T04:30:49.278Z,101377.00
2022-10-20T04:33:16.617Z,101337.00
2022-10-20T04:35:44.034Z,101371.00
2022-10-20T04:38:11.214Z,101360.00
2022-10-20T04:40:38.172Z,101372.00
2022-10-20T04:43:05.196Z,101365.00
2022-10-20T04:45:32.159Z,101363.00
2022-10-20T04:47:59.089Z,101340.00
2022-10-20T04:50:26.012Z,101361.00
2022-10-20T04:52:52.906Z,101351.00
2022-10-20T04:55:20.293Z,101358.00
2022-10-20T04:57:47.197Z,101363.00
2022-10-20T05:00:14.970Z,101362.00
2022-10-20T05:02:41.965Z,101367.00
2022-10-20T05:05:09.458Z,101365.00
2022-10-20T05:07:36.682Z,101358.00
2022-10-20T05:10:04.660Z,101350.00
2022-10-20T05:12:31.561Z,101357.00
2022-10-20T05:14:58.508Z,101357.00
2022-10-20T05:17:25.804Z,101362.00
2022-10-20T05:19:52.726Z,101361.00
2022-10-20T05:22:19.636Z,101363.00
2022-10-20T05:24:46.555Z,101357.00
2022-10-20T05:27:13.568Z,101358.00
2022-10-20T05:29:40.458Z,101344.00
2022-10-20T05:32:07.382Z,101360.00
2022-10-20T05:34:34.306Z,101363.00
2022-10-20T05:37:01.194Z,101359.00
2022-10-20T05:39:28.110Z,101363.00
2022-10-20T05:41:55.025Z,101368.00
2022-10-20T05:44:22.010Z,101372.00
2022-10-20T05:46:48.906Z,101375.00
2022-10-20T05:49:17.567Z,101348.00
2022-10-20T05:51:46.738Z,101375.00
2022-10-20T05:54:15.252Z,101374.00
2022-10-20T05:56:42.748Z,101367.00
2022-10-20T05:59:11.160Z,101373.00
2022-10-20T06:01:50.517Z,101377.00
2022-10-20T06:04:23.565Z,101384.00
2022-10-20T06:06:52.536Z,101382.00
2022-10-20T06:09:21.207Z,101376.00
2022-10-20T06:11:49.098Z,101382.00
2022-10-20T06:14:17.255Z,101379.00
2022-10-20T06:16:44.798Z,101383.00
2022-10-20T06:19:11.793Z,101383.00
2022-10-20T06:21:38.998Z,101387.00
2022-10-20T06:24:07.134Z,101381.00
2022-10-20T06:26:38.936Z,101391.00
2022-10-20T06:29:09.903Z,101398.00
2022-10-20T06:31:46.698Z,101395.00
2022-10-20T06:34:25.526Z,101403.00
2022-10-20T06:36:53.056Z,101402.00
2022-10-20T06:39:24.722Z,101383.00
2022-10-20T06:41:54.502Z,101402.00
2022-10-20T06:44:24.475Z,101404.00
2022-10-20T06:46:54.877Z,101389.00
2022-10-20T06:49:22.498Z,101416.00
2022-10-20T06:51:50.347Z,101413.00
2022-10-20T06:54:18.041Z,101419.00
2022-10-20T06:56:45.028Z,101422.00
2022-10-20T06:59:12.110Z,101428.00
2022-10-20T07:01:40.276Z,101423.00
2022-10-20T07:04:14.937Z,101437.00
2022-10-20T07:06:45.178Z,101409.00
2022-10-20T07:09:20.699Z,101436.00
2022-10-20T07:11:52.373Z,101460.00
2022-10-20T07:14:22.448Z,101447.00
2022-10-20T07:16:49.418Z,101431.00
2022-10-20T07:19:16.353Z,101449.00
2022-10-20T07:21:45.693Z,101446.00
2022-10-20T07:24:13.898Z,101446.00
2022-10-20T07:26:41.650Z,101444.00
2022-10-20T07:29:09.816Z,101444.00
2022-10-20T07:31:46.814Z,101446.00
2022-10-20T07:34:25.658Z,101455.00
2022-10-20T07:36:54.987Z,101442.00
2022-10-20T07:39:21.985Z,101446.00
2022-10-20T07:41:49.518Z,101449.00
2022-10-20T07:44:17.376Z,101445.00
2022-10-20T07:46:44.884Z,101431.00
2022-10-20T07:49:39.207Z,101453.00
2022-10-20T07:51:58.841Z,101460.00
2022-10-20T07:54:25.841Z,101455.00
2022-10-20T07:56:52.966Z,101442.00
2022-10-20T07:59:19.929Z,101452.00
2022-10-20T08:01:47.462Z,101455.00
2022-10-20T08:04:14.450Z,101447.00
2022-10-20T08:06:41.505Z,101448.00
2022-10-20T08:09:08.514Z,101450.00
2022-10-20T08:11:35.989Z,101422.00
2022-10-20T08:14:03.157Z,101455.00
2022-10-20T08:16:37.856Z,101455.00
2022-10-20T08:19:04.961Z,101457.00
2022-10-20T08:21:32.417Z,101456.00
2022-10-20T08:23:59.414Z,101458.00
2022-10-20T08:26:27.848Z,101453.00
2022-10-20T08:28:55.791Z,101454.00
2022-10-20T08:31:23.492Z,101458.00
2022-10-20T08:33:54.128Z,101455.00
2022-10-20T08:36:21.571Z,101463.00
2022-10-20T08:38:49.090Z,101468.00
2022-10-20T08:41:38.882Z,101471.00
2022-10-20T08:44:21.882Z,101460.00
2022-10-20T08:46:48.909Z,101456.00
2022-10-20T08:49:26.268Z,101452.00
2022-10-20T08:51:53.315Z,101453.00
2022-10-20T08:54:23.100Z,101452.00
2022-10-20T08:56:50.508Z,101445.00
2022-10-20T08:59:35.200Z,101457.00
2022-10-20T09:02:14.538Z,101451.00
2022-10-20T09:04:54.636Z,101447.00
2022-10-20T09:07:37.640Z,101449.00
2022-10-20T09:10:25.384Z,101447.00
2022-10-20T09:12:53.297Z,101445.00
2022-10-20T09:15:22.764Z,101436.00
2022-10-20T09:18:00.804Z,101429.00
2022-10-20T09:20:40.756Z,101448.00
2022-10-20T09:23:40.137Z,101438.00
2022-10-20T09:26:30.613Z,101434.00
2022-10-20T09:29:15.750Z,101417.00
2022-10-20T09:31:50.117Z,101430.00
2022-10-20T09:34:34.281Z,101434.00
2022-10-20T09:37:07.173Z,101433.00
2022-10-20T09:39:56.083Z,101444.00
2022-10-20T09:42:30.077Z,101441.00
2022-10-20T09:45:31.746Z,101444.00
2022-10-20T09:48:31.763Z,101442.00
2022-10-20T09:51:00.292Z,101436.00
2022-10-20T09:54:02.673Z,101432.00
2022-10-20T09:56:35.162Z,101437.00
2022-10-20T09:59:07.922Z,101426.00
2022-10-20T10:01:35.103Z,101432.00
2022-10-20T10:04:02.209Z,101424.00
2022-10-20T10:06:38.109Z,101437.00
2022-10-20T10:09:35.100Z,101418.00
2022-10-20T10:12:16.515Z,101429.00
2022-10-20T10:14:58.545Z,101424.00
2022-10-20T10:17:35.394Z,101422.00
2022-10-20T10:20:25.723Z,101419.00
2022-10-20T10:22:53.152Z,101418.00
2022-10-20T10:25:29.455Z,101427.00
2022-10-20T10:28:03.344Z,101418.00
2022-10-20T10:30:37.223Z,101422.00
2022-10-20T10:33:30.235Z,101415.00
2022-10-20T10:35:57.707Z,101417.00
2022-10-20T10:38:24.636Z,101409.00
2022-10-20T10:41:03.578Z,101419.00
2022-10-20T10:44:09.857Z,101411.00
2022-10-20T10:47:26.512Z,101411.00
2022-10-20T10:50:33.181Z,101408.00
2022-10-20T10:53:20.803Z,101411.00
2022-10-20T10:55:55.792Z,101408.00
2022-10-20T10:58:37.253Z,101404.00
2022-10-20T11:01:39.924Z,101400.00
2022-10-20T11:04:24.817Z,101393.00
2022-10-20T11:07:44.691Z,101398.00
2022-10-20T11:10:33.069Z,101386.00
2022-10-20T11:14:13.007Z,101382.00
2022-10-20T11:17:01.270Z,101389.00
2022-10-20T11:19:54.629Z,101384.00
2022-10-20T11:23:03.341Z,101382.00
2022-10-20T11:25:52.674Z,101371.00
2022-10-20T11:28:52.249Z,101372.00
2022-10-20T11:31:50.730Z,101375.00
2022-10-20T11:34:56.654Z,101371.00
2022-10-20T11:37:32.823Z,101369.00
2022-10-20T11:40:12.891Z,101373.00
2022-10-20T11:43:10.176Z,101372.00
2022-10-20T11:46:05.361Z,101363.00
2022-10-20T11:48:49.485Z,101356.00
2022-10-20T11:51:30.385Z,101348.00
2022-10-20T11:54:28.606Z,101343.00
2022-10-20T11:57:23.755Z,101337.00
2022-10-20T12:00:13.552Z,101331.00
2022-10-20T12:03:18.174Z,101323.00
2022-10-20T12:06:23.690Z,101329.00
2022-10-20T12:09:19.854Z,101327.00
2022-10-20T12:12:01.527Z,101330.00
2022-10-20T12:14:38.604Z,101323.00
2022-10-20T12:17:28.467Z,101332.00
2022-10-20T12:20:21.147Z,101321.00
2022-10-20T12:22:55.028Z,101308.00
2022-10-20T12:25:38.674Z,101313.00
2022-10-20T12:28:27.753Z,101310.00
2022-10-20T12:31:05.458Z,101309.00
2022-10-20T12:33:41.660Z,101292.00
2022-10-20T12:36:17.298Z,101295.00
2022-10-20T12:39:13.288Z,101297.00
2022-10-20T12:41:56.869Z,101292.00
2022-10-20T12:44:24.917Z,101294.00
2022-10-20T12:47:07.559Z,101286.00
2022-10-20T12:49:45.368Z,101278.00
2022-10-20T12:52:24.281Z,101291.00
2022-10-20T12:55:04.566Z,101291.00
2022-10-20T12:57:36.776Z,101286.00
2022-10-20T13:00:27.291Z,101285.00
2022-10-20T13:02:59.157Z,101298.00
2022-10-20T13:05:42.619Z,101289.00
2022-10-20T13:08:21.089Z,101291.00
2022-10-20T13:10:49.434Z,101287.00
2022-10-20T13:13:19.140Z,101284.00
2022-10-20T13:15:47.415Z,101280.00
2022-10-20T13:18:17.358Z,101287.00
2022-10-20T13:21:00.113Z,101280.00
2022-10-20T13:23:47.811Z,101290.00
2022-10-20T13:26:26.625Z,101278.00
2022-10-20T13:29:00.505Z,101274.00
2022-10-20T13:35:16.472Z,101278.00
2022-10-20T13:38:10.361Z,101269.00
2022-10-20T13:40:46.019Z,101277.00
2022-10-20T13:44:12.863Z,101273.00
2022-10-20T13:47:00.734Z,101276.00
2022-10-20T13:49:57.127Z,101275.00
2022-10-20T13:52:30.819Z,101275.00
2022-10-20T13:55:00.149Z,101269.00
2022-10-20T13:57:33.677Z,101268.00
2022-10-20T14:00:16.437Z,101256.00
2022-10-20T14:03:15.850Z,101269.00
2022-10-20T14:05:42.827Z,101265.00
2022-10-20T14:08:17.104Z,101270.00
2022-10-20T14:10:55.694Z,101268.00
2022-10-20T14:13:34.339Z,101262.00
2022-10-20T14:16:05.760Z,101267.00
2022-10-20T14:18:39.052Z,101264.00
2022-10-20T14:21:18.158Z,101259.00
2022-10-20T14:23:49.191Z,101251.00
2022-10-20T14:26:21.102Z,101258.00
2022-10-20T14:28:50.774Z,101249.00
2022-10-20T14:31:23.523Z,101270.00
2022-10-20T14:33:53.121Z,101255.00
2022-10-20T14:39:01.415Z,101242.00
2022-10-20T14:41:36.238Z,101242.00
2022-10-20T14:44:14.703Z,101247.00
2022-10-20T14:46:51.134Z,101254.00
2022-10-20T14:49:27.017Z,101232.00
2022-10-20T14:52:29.368Z,101237.00
2022-10-20T14:54:56.523Z,101230.00
2022-10-20T14:57:37.036Z,101233.00
2022-10-20T15:00:29.488Z,101239.00
2022-10-20T15:02:58.668Z,101238.00
2022-10-20T15:05:33.561Z,101232.00
2022-10-20T15:08:28.448Z,101227.00
2022-10-20T15:11:06.502Z,101215.00
2022-10-20T15:13:53.273Z,101224.00
2022-10-20T15:16:44.866Z,101151.00
2022-10-20T15:19:28.148Z,101218.00
2022-10-20T15:21:59.899Z,101223.00
2022-10-20T15:24:27.892Z,101216.00
2022-10-20T15:26:56.364Z,101215.00
2022-10-20T15:29:24.136Z,101219.00
2022-10-20T15:31:51.300Z,101215.00
2022-10-20T15:34:18.294Z,101209.00
2022-10-20T15:36:48.863Z,101213.00
2022-10-20T15:39:18.019Z,101211.00
2022-10-20T15:41:45.673Z,101206.00
2022-10-20T15:44:19.581Z,101212.00
2022-10-20T15:46:47.026Z,101208.00
2022-10-20T15:49:14.594Z,101212.00
2022-10-20T15:51:46.344Z,101209.00
2022-10-20T15:54:20.465Z,101213.00
2022-10-20T15:56:48.024Z,101215.00
2022-10-20T15:59:15.067Z,101206.00
2022-10-20T16:01:42.292Z,101208.00
2022-10-20T16:04:30.278Z,101204.00
2022-10-20T16:06:59.036Z,101198.00
2022-10-20T16:09:28.952Z,101206.00
2022-10-20T16:11:55.984Z,101206.00
2022-10-20T16:14:22.930Z,101206.00
2022-10-20T16:16:49.953Z,101207.00
2022-10-20T16:19:16.879Z,101215.00
2022-10-20T16:21:43.821Z,101212.00
2022-10-20T16:24:11.542Z,101205.00
2022-10-20T16:26:38.618Z,101198.00
2022-10-20T16:29:05.526Z,101200.00
2022-10-20T16:31:32.487Z,101201.00
2022-10-20T16:34:00.332Z,101202.00
2022-10-20T16:36:27.443Z,101203.00
2022-10-20T16:38:57.846Z,101194.00
2022-10-20T16:41:25.276Z,101204.00
2022-10-20T16:43:53.161Z,101207.00
2022-10-20T16:46:21.416Z,101200.00
2022-10-20T16:48:48.513Z,101197.00
2022-10-20T16:51:16.928Z,101201.00
2022-10-20T16:53:44.029Z,101203.00
2022-10-20T16:56:15.335Z,101188.00
2022-10-20T16:58:45.784Z,101184.00
2022-10-20T17:01:43.115Z,101200.00
2022-10-20T17:04:12.661Z,101186.00
2022-10-20T17:06:39.670Z,101192.00
2022-10-20T17:09:07.837Z,101194.00
2022-10-20T17:11:35.089Z,101202.00
2022-10-20T17:14:02.277Z,101192.00
2022-10-20T17:16:34.809Z,101196.00
2022-10-20T17:19:03.073Z,101189.00
2022-10-20T17:21:32.026Z,101185.00
2022-10-20T17:23:59.563Z,101182.00
2022-10-20T17:26:30.529Z,101182.00
2022-10-20T17:29:00.848Z,101190.00
2022-10-20T17:31:29.551Z,101189.00
2022-10-20T17:33:59.018Z,101188.00
2022-10-20T17:36:28.575Z,101195.00
2022-10-20T17:39:03.269Z,101188.00
2022-10-20T17:41:30.514Z,101185.00
2022-10-20T17:44:00.903Z,101184.00
2022-10-20T17:46:28.455Z,101183.00
2022-10-20T17:48:56.214Z,101183.00
2022-10-20T17:51:28.967Z,101177.00
2022-10-20T17:53:59.106Z,101181.00
2022-10-20T17:56:32.578Z,101175.00
2022-10-20T17:59:03.121Z,101176.00
2022-10-20T18:01:36.025Z,101173.00
2022-10-20T18:04:20.858Z,101179.00
2022-10-20T18:06:48.526Z,101178.00
2022-10-20T18:09:18.668Z,101175.00
2022-10-20T18:11:51.642Z,101167.00
2022-10-20T18:14:19.104Z,101169.00
2022-10-20T18:16:47.079Z,101164.00
2022-10-20T18:19:18.703Z,101155.00
2022-10-20T18:21:46.240Z,101160.00
2022-10-20T18:24:16.410Z,101163.00
2022-10-20T18:26:44.760Z,101163.00
2022-10-20T18:29:14.248Z,101158.00
2022-10-20T18:31:43.774Z,101157.00
2022-10-20T18:34:20.023Z,101158.00
2022-10-20T18:36:48.463Z,101156.00
2022-10-20T18:39:15.983Z,101150.00
2022-10-20T18:41:44.426Z,101153.00
2022-10-20T18:44:15.288Z,101143.00
2022-10-20T18:46:43.131Z,101120.00
2022-10-20T18:49:14.358Z,101141.00
2022-10-20T18:51:42.406Z,101147.00
2022-10-20T18:54:09.789Z,101131.00
2022-10-20T18:56:39.868Z,101130.00
2022-10-20T18:59:13.969Z,101139.00
2022-10-20T19:01:42.414Z,101137.00
2022-10-20T19:04:11.745Z,101145.00
2022-10-20T19:06:48.997Z,101147.00
2022-10-20T19:09:20.769Z,101140.00
2022-10-20T19:14:21.717Z,101138.00
2022-10-20T19:16:49.763Z,101141.00
2022-10-20T19:19:17.649Z,101127.00
2022-10-20T19:21:45.357Z,101131.00
2022-10-20T19:24:14.628Z,101120.00
2022-10-20T19:27:14.475Z,101116.00
2022-10-20T19:29:43.050Z,101110.00
2022-10-20T19:32:11.411Z,101108.00
2022-10-20T19:34:41.293Z,101104.00
2022-10-20T19:37:09.271Z,101104.00
2022-10-20T19:39:43.116Z,101103.00
2022-10-20T19:42:11.725Z,101094.00
2022-10-20T19:44:39.902Z,101095.00
2022-10-20T19:47:08.103Z,101100.00
2022-10-20T19:49:35.613Z,101099.00
2022-10-20T19:52:03.626Z,101091.00
2022-10-20T19:54:30.605Z,101081.00
2022-10-20T19:56:57.598Z,101072.00
2022-10-20T19:59:27.208Z,101072.00
2022-10-20T20:01:54.275Z,101070.00
2022-10-20T20:04:21.753Z,101081.00
2022-10-20T20:06:49.230Z,101075.00
2022-10-20T20:09:16.619Z,101073.00
2022-10-20T20:11:44.549Z,101077.00
2022-10-20T20:14:16.432Z,101074.00
2022-10-20T20:16:46.124Z,101062.00
2022-10-20T20:19:15.702Z,101057.00
2022-10-20T20:21:42.810Z,101060.00
2022-10-20T20:24:12.226Z,101060.00
2022-10-20T20:26:39.217Z,101039.00
2022-10-20T20:29:06.324Z,101033.00
2022-10-20T20:31:33.982Z,101031.00
2022-10-20T20:34:01.023Z,101024.00
2022-10-20T20:36:28.913Z,101021.00
2022-10-20T20:38:58.449Z,101015.00
2022-10-20T20:41:28.349Z,101007.00
2022-10-20T20:43:56.170Z,101016.00
2022-10-20T20:46:27.577Z,101009.00
2022-10-20T20:48:55.416Z,101006.00
2022-10-20T20:51:22.635Z,101015.00
2022-10-20T20:53:49.745Z,101006.00
2022-10-20T20:56:21.688Z,100995.00
2022-10-20T20:58:50.441Z,101002.00
2022-10-20T21:01:21.407Z,101010.00
2022-10-20T21:03:56.206Z,101001.00
2022-10-20T21:06:33.621Z,100994.00
2022-10-20T21:09:11.485Z,100992.00
2022-10-20T21:11:38.778Z,100988.00
2022-10-20T21:14:05.759Z,100989.00
2022-10-20T21:16:36.352Z,100988.00
2022-10-20T21:19:09.800Z,100987.00
2022-10-20T21:21:50.934Z,100981.00
2022-10-20T21:24:18.690Z,100993.00
2022-10-20T21:26:46.890Z,100994.00
2022-10-20T21:29:17.205Z,100990.00
2022-10-20T21:31:44.201Z,100974.00
2022-10-20T21:34:11.836Z,100976.00
2022-10-20T21:36:40.180Z,100987.00
2022-10-20T21:39:12.581Z,100991.00
2022-10-20T21:41:40.321Z,100992.00
2022-10-20T21:44:09.027Z,100997.00
2022-10-20T21:46:42.097Z,100985.00
2022-10-20T21:49:16.997Z,100989.00
2022-10-20T21:51:49.153Z,100977.00
2022-10-20T21:56:54.082Z,100964.00
2022-10-20T21:59:28.420Z,100977.00
2022-10-20T22:01:59.700Z,100974.00
2022-10-20T22:04:29.790Z,100972.00
2022-10-20T22:06:59.181Z,100983.00
2022-10-20T22:09:26.259Z,100979.00
2022-10-20T22:11:56.710Z,100971.00
2022-10-20T22:14:24.202Z,100977.00
2022-10-20T22:16:51.780Z,100983.00
2022-10-20T22:19:22.249Z,100969.00
2022-10-20T22:21:51.311Z,100966.00
2022-10-20T22:24:19.912Z,100949.00
2022-10-20T22:26:49.126Z,100953.00
2022-10-20T22:29:16.030Z,100944.00
2022-10-20T22:31:43.034Z,100945.00
2022-10-20T22:34:11.538Z,100936.00
2022-10-20T22:36:39.340Z,100935.00
2022-10-20T22:39:08.955Z,100935.00
2022-10-20T22:41:36.117Z,100939.00
2022-10-20T22:44:03.259Z,100923.00
2022-10-20T22:46:30.213Z,100939.00
2022-10-20T22:51:29.051Z,100936.00
2022-10-20T22:53:56.210Z,100940.00
2022-10-20T22:56:23.649Z,100938.00
2022-10-20T22:58:53.496Z,100942.00
2022-10-20T23:01:23.657Z,100941.00
2022-10-20T23:03:51.407Z,100929.00
2022-10-20T23:06:26.183Z,100928.00
2022-10-20T23:08:56.011Z,100925.00
2022-10-20T23:11:23.799Z,100924.00
2022-10-20T23:13:51.367Z,100926.00
2022-10-20T23:16:19.394Z,100922.00
2022-10-20T23:18:47.455Z,100932.00
2022-10-20T23:21:14.955Z,100923.00
2022-10-20T23:23:42.390Z,100909.00
2022-10-20T23:26:10.340Z,100920.00
2022-10-20T23:28:39.202Z,100918.00
2022-10-20T23:31:15.792Z,100921.00
2022-10-20T23:33:45.081Z,100928.00
2022-10-20T23:36:14.562Z,100908.00
2022-10-20T23:38:42.682Z,100920.00
2022-10-20T23:41:10.702Z,100925.00
2022-10-20T23:43:38.039Z,100926.00
2022-10-20T23:46:05.538Z,100926.00
2022-10-20T23:48:33.372Z,100923.00
2022-10-20T23:51:00.331Z,100923.00
2022-10-20T23:53:27.362Z,100893.00
2022-10-20T23:55:54.396Z,100926.00
2022-10-20T23:58:22.666Z,100927.00
